Time;durP1;ratioP1;P1;durP2;ratioP2;P2;SDS_P1;SDS_P2;PMS_P1;PMS_P2;Temp;Humidity;BMP_temperature;BMP_pressure;BME280_temperature;BME280_humidity;BME280_pressure;Samples;Min_cycle;Max_cycle;Signal;HPM_P1;HPM_P2
2021/11/16 00:02:15;;;;;;;38.63;16.33;;;;;;;;;;4983529;28;20524;-68
2021/11/16 00:04:42;;;;;;;43.53;18.27;;;;;;;;;;4982897;28;20046;-68
2021/11/16 00:07:09;;;;;;;42.70;17.20;;;;;;;;;;4984289;28;20477;-68
2021/11/16 00:09:36;;;;;;;;;;;;;;;;;;4979254;28;20058;-68
2021/11/16 00:12:02;;;;;;;42.17;17.95;;;;;;;;;;4984646;28;20406;-67
2021/11/16 00:14:30;;;;;;;49.17;18.50;;;;;;;;;;4978050;28;20141;-68
2021/11/16 00:16:58;;;;;;;49.10;18.33;;;;;;;;;;4982218;28;20133;-68
2021/11/16 00:19:26;;;;;;;39.08;16.95;;;;;;;;;;4978524;28;20047;-68
2021/11/16 00:21:56;;;;;;;50.58;18.92;;;;;;;;;;4981657;28;20100;-68
2021/11/16 00:24:35;;;;;;;40.67;16.63;;;;;;;;;;4978859;28;20137;-68
2021/11/16 00:27:02;;;;;;;48.85;17.77;;;;;;;;;;4985920;28;20471;-68
2021/11/16 00:29:32;;;;;;;49.95;19.38;;;;;;;;;;4981584;28;20078;-68
2021/11/16 00:31:59;;;;;;;48.80;18.58;;;;;;;;;;4987680;28;20150;-69
2021/11/16 00:34:25;;;;;;;45.25;19.30;;;;;;;;;;4988486;28;20078;-68
2021/11/16 00:36:52;;;;;;;41.80;16.33;;;;;;;;;;4988673;28;20477;-68
2021/11/16 00:39:19;;;;;;;52.80;19.95;;;;;;;;;;4981822;28;20074;-68
2021/11/16 00:41:45;;;;;;;46.43;19.30;;;;;;;;;;4985174;28;20043;-69
2021/11/16 00:44:12;;;;;;;51.75;19.05;;;;;;;;;;4987696;28;20513;-68
2021/11/16 00:46:39;;;;;;;45.50;19.30;;;;;;;;;;4986980;28;20822;-68
2021/11/16 00:49:05;;;;;;;51.17;20.60;;;;;;;;;;4980872;28;20526;-68
2021/11/16 00:51:32;;;;;;;51.80;20.35;;;;;;;;;;4985201;28;20153;-68
2021/11/16 00:53:58;;;;;;;55.35;21.02;;;;;;;;;;4985587;28;20565;-69
2021/11/16 00:56:24;;;;;;;54.28;19.67;;;;;;;;;;4986145;28;20565;-69
2021/11/16 00:58:51;;;;;;;49.42;20.08;;;;;;;;;;4986512;28;20472;-69
2021/11/16 01:01:17;;;;;;;40.97;18.70;;;;;;;;;;4980679;28;20437;-69
2021/11/16 01:03:44;;;;;;;58.50;19.92;;;;;;;;;;4986337;28;20384;-69
2021/11/16 01:06:11;;;;;;;52.38;20.30;;;;;;;;;;4984914;28;20104;-69
2021/11/16 01:08:37;;;;;;;62.72;20.50;;;;;;;;;;4987624;28;20134;-69
2021/11/16 01:11:04;;;;;;;57.17;21.05;;;;;;;;;;4987238;28;20129;-69
2021/11/16 01:13:31;;;;;;;57.70;20.93;;;;;;;;;;4989826;28;20085;-69
2021/11/16 01:15:57;;;;;;;51.80;20.40;;;;;;;;;;4985354;28;20741;-69
2021/11/16 01:18:25;;;;;;;52.67;21.08;;;;;;;;;;4988055;28;20055;-69
2021/11/16 01:20:53;;;;;;;57.83;21.20;;;;;;;;;;4983841;28;20089;-69
2021/11/16 01:23:20;;;;;;;60.50;20.35;;;;;;;;;;4981685;28;20047;-69
2021/11/16 01:25:47;;;;;;;68.57;22.52;;;;;;;;;;4990092;28;20074;-69
2021/11/16 01:28:17;;;;;;;56.25;19.92;;;;;;;;;;4987077;28;20050;-69
2021/11/16 01:30:46;;;;;;;59.30;21.60;;;;;;;;;;4999956;28;20049;-70
2021/11/16 01:33:15;;;;;;;51.70;19.80;;;;;;;;;;5002684;28;20533;-69
2021/11/16 01:35:43;;;;;;;62.10;20.42;;;;;;;;;;5003867;28;20473;-69
2021/11/16 01:38:10;;;;;;;48.13;20.38;;;;;;;;;;5009612;28;20050;-69
2021/11/16 01:40:37;;;;;;;63.08;22.38;;;;;;;;;;4999360;28;20074;-70
2021/11/16 01:43:07;;;;;;;57.53;21.38;;;;;;;;;;5005602;28;20084;-69
2021/11/16 01:45:53;;;;;;;64.82;22.73;;;;;;;;;;5007704;28;20524;-70
2021/11/16 01:48:21;;;;;;;79.78;23.65;;;;;;;;;;5007792;28;20211;-70
2021/11/16 01:50:48;;;;;;;74.28;23.33;;;;;;;;;;5009309;28;20054;-70
2021/11/16 01:53:14;;;;;;;65.43;21.40;;;;;;;;;;5004556;28;20138;-70
2021/11/16 01:55:41;;;;;;;65.25;21.23;;;;;;;;;;5000646;28;20451;-70
2021/11/16 01:58:07;;;;;;;61.50;22.00;;;;;;;;;;5003675;28;20137;-70
2021/11/16 02:00:35;;;;;;;71.85;21.80;;;;;;;;;;5006736;28;20132;-71
2021/11/16 02:03:04;;;;;;;79.72;23.67;;;;;;;;;;4998890;28;20042;-69
2021/11/16 02:05:35;;;;;;;71.50;22.38;;;;;;;;;;4998336;28;20050;-70
2021/11/16 02:08:02;;;;;;;70.70;23.17;;;;;;;;;;5005110;28;20090;-70
2021/11/16 02:10:28;;;;;;;64.30;21.00;;;;;;;;;;5005120;28;20088;-70
2021/11/16 02:12:54;;;;;;;72.95;22.88;;;;;;;;;;5002671;28;20133;-70
2021/11/16 02:15:21;;;;;;;81.25;23.60;;;;;;;;;;5004598;28;20576;-70
2021/11/16 02:17:48;;;;;;;83.88;23.45;;;;;;;;;;5005185;28;20144;-69
2021/11/16 02:20:17;;;;;;;87.95;23.88;;;;;;;;;;5003824;28;20046;-70
2021/11/16 02:22:44;;;;;;;82.05;23.08;;;;;;;;;;5007704;28;20129;-69
2021/11/16 02:25:11;;;;;;;84.85;24.40;;;;;;;;;;5005533;28;20085;-69
2021/11/16 02:27:38;;;;;;;85.53;23.10;;;;;;;;;;5002819;28;20081;-70
2021/11/16 02:30:04;;;;;;;93.35;24.02;;;;;;;;;;4991061;28;20385;-70
2021/11/16 02:32:31;;;;;;;99.38;24.23;;;;;;;;;;4980195;28;20134;-70
2021/11/16 02:34:58;;;;;;;68.75;22.20;;;;;;;;;;4983892;28;20153;-70
2021/11/16 02:37:29;;;;;;;85.93;24.05;;;;;;;;;;4989635;28;20137;-70
2021/11/16 02:39:56;;;;;;;75.63;23.63;;;;;;;;;;4986178;28;20133;-70
2021/11/16 02:42:23;;;;;;;76.47;22.88;;;;;;;;;;4989811;28;20115;-70
2021/11/16 02:44:49;;;;;;;49.72;18.00;;;;;;;;;;4981736;28;20476;-70
2021/11/16 02:47:16;;;;;;;83.30;25.23;;;;;;;;;;4986743;28;20454;-70
2021/11/16 02:49:43;;;;;;;81.32;24.13;;;;;;;;;;4980622;28;20515;-70
2021/11/16 02:52:11;;;;;;;81.60;24.13;;;;;;;;;;4985234;28;20514;-70
2021/11/16 02:54:37;;;;;;;80.90;24.00;;;;;;;;;;4981051;28;20137;-70
2021/11/16 02:57:08;;;;;;;80.88;23.35;;;;;;;;;;4982697;28;20134;-70
2021/11/16 02:59:35;;;;;;;77.75;23.85;;;;;;;;;;4985231;28;20078;-70
2021/11/16 03:02:03;;;;;;;83.18;24.42;;;;;;;;;;4983966;28;20149;-70
2021/11/16 03:04:33;;;;;;;72.10;24.35;;;;;;;;;;4983909;28;20133;-70
2021/11/16 03:07:04;;;;;;;77.88;24.85;;;;;;;;;;4984668;28;20092;-70
2021/11/16 03:09:32;;;;;;;93.47;25.33;;;;;;;;;;4985566;28;20090;-70
2021/11/16 03:11:58;;;;;;;;;;;;;;;;;;4983654;28;20125;-70
2021/11/16 03:14:25;;;;;;;76.38;22.77;;;;;;;;;;4986483;28;19969;-70
2021/11/16 03:16:52;;;;;;;72.13;23.30;;;;;;;;;;4987857;28;20130;-70
2021/11/16 03:19:18;;;;;;;68.18;23.40;;;;;;;;;;4980430;28;20121;-70
2021/11/16 03:21:54;;;;;;;68.85;21.85;;;;;;;;;;4983830;28;20073;-70
2021/11/16 03:24:27;;;;;;;81.00;24.33;;;;;;;;;;4981061;28;20186;-70
2021/11/16 03:26:53;;;;;;;73.05;23.38;;;;;;;;;;4989212;28;20085;-70
2021/11/16 03:29:24;;;;;;;75.97;23.30;;;;;;;;;;4979588;28;20105;-69
2021/11/16 03:32:00;;;;;;;68.18;23.15;;;;;;;;;;4983623;28;20136;-70
2021/11/16 03:34:28;;;;;;;68.13;22.70;;;;;;;;;;4981057;28;20074;-70
2021/11/16 03:36:54;;;;;;;98.53;26.13;;;;;;;;;;4983659;28;20147;-70
2021/11/16 03:39:21;;;;;;;75.38;24.08;;;;;;;;;;4979306;28;20077;-70
2021/11/16 03:41:48;;;;;;;71.00;23.13;;;;;;;;;;4981833;28;20049;-69
2021/11/16 03:44:15;;;;;;;79.57;23.42;;;;;;;;;;4987027;28;20297;-70
2021/11/16 03:46:41;;;;;;;72.10;23.45;;;;;;;;;;4969589;28;20473;-70
2021/11/16 03:49:12;;;;;;;67.28;23.00;;;;;;;;;;4984455;28;20129;-70
2021/11/16 03:51:40;;;;;;;55.40;20.63;;;;;;;;;;4985985;28;20439;-70
2021/11/16 03:54:08;;;;;;;60.45;20.77;;;;;;;;;;4980871;28;20046;-70
2021/11/16 03:56:34;;;;;;;76.68;24.73;;;;;;;;;;4985872;28;20474;-69
2021/11/16 03:59:02;;;;;;;72.25;23.42;;;;;;;;;;4985278;28;20423;-70
2021/11/16 04:01:29;;;;;;;86.45;25.48;;;;;;;;;;4982790;28;20046;-70
2021/11/16 04:03:56;;;;;;;68.60;23.58;;;;;;;;;;4976598;28;20136;-70
2021/11/16 04:06:23;;;;;;;76.78;25.20;;;;;;;;;;4976093;28;20499;-70
2021/11/16 04:08:50;;;;;;;66.13;24.20;;;;;;;;;;4988815;28;20086;-69
2021/11/16 04:11:16;;;;;;;69.13;24.73;;;;;;;;;;4977827;28;20145;-69
2021/11/16 04:13:45;;;;;;;83.18;26.00;;;;;;;;;;4983874;28;20166;-70
2021/11/16 04:16:11;;;;;;;66.65;23.70;;;;;;;;;;4986165;28;20082;-70
2021/11/16 04:18:38;;;;;;;89.65;27.75;;;;;;;;;;4988416;28;20486;-70
2021/11/16 04:21:05;;;;;;;98.55;30.17;;;;;;;;;;4986913;28;20035;-70
2021/11/16 04:23:31;;;;;;;88.93;28.63;;;;;;;;;;4984951;28;20199;-70
2021/11/16 04:26:02;;;;;;;75.25;25.50;;;;;;;;;;4982450;28;20130;-70
2021/11/16 04:28:29;;;;;;;90.53;28.80;;;;;;;;;;4986297;28;20078;-69
2021/11/16 04:30:59;;;;;;;88.35;29.73;;;;;;;;;;4980281;28;20556;-70
2021/11/16 04:33:26;;;;;;;96.68;29.40;;;;;;;;;;4985712;28;20055;-69
2021/11/16 04:35:53;;;;;;;109.78;30.90;;;;;;;;;;4987492;28;20080;-70
2021/11/16 04:38:20;;;;;;;112.60;30.48;;;;;;;;;;4986354;28;20120;-70
2021/11/16 04:40:51;;;;;;;100.78;30.10;;;;;;;;;;4986926;28;20582;-70
2021/11/16 04:43:21;;;;;;;117.40;31.48;;;;;;;;;;4981362;28;20134;-70
2021/11/16 04:45:50;;;;;;;90.53;29.65;;;;;;;;;;4983288;28;20082;-70
2021/11/16 04:48:51;;;;;;;103.70;30.65;;;;;;;;;;4980412;28;20061;-70
2021/11/16 04:51:33;;;;;;;97.30;30.17;;;;;;;;;;4972250;28;20490;-70
2021/11/16 05:04:40;;;;;;;110.47;31.27;;;;;;;;;;4982652;28;20046;-70
2021/11/16 05:07:13;;;;;;;106.93;32.10;;;;;;;;;;4981144;28;20502;-70
2021/11/16 05:09:39;;;;;;;91.72;29.48;;;;;;;;;;4985000;28;20505;-70
2021/11/16 05:12:06;;;;;;;96.82;30.95;;;;;;;;;;4984015;28;20081;-70
2021/11/16 05:14:33;;;;;;;111.72;32.45;;;;;;;;;;4981999;28;20114;-70
2021/11/16 05:17:00;;;;;;;114.95;31.70;;;;;;;;;;4986825;28;20519;-70
2021/11/16 05:19:26;;;;;;;125.05;32.22;;;;;;;;;;4989458;28;20082;-70
2021/11/16 05:21:53;;;;;;;126.68;32.22;;;;;;;;;;4986231;28;20109;-69
2021/11/16 05:24:23;;;;;;;131.82;34.55;;;;;;;;;;4981709;28;20089;-70
2021/11/16 05:26:50;;;;;;;111.65;32.20;;;;;;;;;;4971836;28;20097;-70
2021/11/16 05:29:17;;;;;;;132.27;34.30;;;;;;;;;;4986357;28;20050;-70
2021/11/16 05:31:43;;;;;;;95.15;30.60;;;;;;;;;;4984469;28;20094;-70
2021/11/16 05:34:10;;;;;;;107.38;32.38;;;;;;;;;;4984425;28;20042;-70
2021/11/16 05:36:37;;;;;;;113.35;33.50;;;;;;;;;;4968022;28;20077;-70
2021/11/16 05:39:04;;;;;;;106.18;29.73;;;;;;;;;;4987894;28;20089;-69
2021/11/16 05:41:33;;;;;;;103.97;32.20;;;;;;;;;;4982291;28;20049;-70
2021/11/16 05:43:59;;;;;;;;;;;;;;;;;;4991212;28;20093;-70
2021/11/16 05:46:26;;;;;;;101.93;30.85;;;;;;;;;;4982095;28;20186;-70
2021/11/16 05:48:53;;;;;;;95.10;31.08;;;;;;;;;;4985575;28;20089;-69
2021/11/16 05:51:23;;;;;;;97.47;32.10;;;;;;;;;;4982606;28;20082;-70
2021/11/16 05:53:57;;;;;;;117.07;32.60;;;;;;;;;;4986538;28;20084;-70
2021/11/16 05:56:26;;;;;;;111.22;32.90;;;;;;;;;;4985005;28;20134;-69
2021/11/16 05:58:53;;;;;;;99.95;31.88;;;;;;;;;;4984499;28;20047;-69
2021/11/16 06:01:21;;;;;;;;;;;;;;;;;;4984054;28;20106;-70
2021/11/16 06:03:54;;;;;;;101.38;31.73;;;;;;;;;;4985307;28;20382;-70
2021/11/16 06:06:21;;;;;;;103.53;31.73;;;;;;;;;;4988848;28;20126;-71
2021/11/16 06:08:49;;;;;;;;;;;;;;;;;;4985075;28;20141;-70
2021/11/16 06:11:17;;;;;;;92.57;29.75;;;;;;;;;;4982252;28;19926;-70
2021/11/16 06:13:44;;;;;;;79.82;27.13;;;;;;;;;;4975211;28;20058;-69
2021/11/16 06:16:11;;;;;;;115.43;32.53;;;;;;;;;;4979223;28;20511;-70
2021/11/16 06:18:41;;;;;;;89.73;29.80;;;;;;;;;;4982545;28;20050;-70
2021/11/16 06:21:11;;;;;;;98.70;32.67;;;;;;;;;;4981300;28;20082;-70
2021/11/16 06:23:38;;;;;;;102.55;31.08;;;;;;;;;;4982454;28;20503;-70
2021/11/16 06:26:05;;;;;;;113.82;32.88;;;;;;;;;;4983580;28;20125;-70
2021/11/16 06:28:31;;;;;;;108.30;32.08;;;;;;;;;;4983342;28;20102;-70
2021/11/16 06:30:59;;;;;;;120.88;33.65;;;;;;;;;;4979095;28;20455;-70
2021/11/16 06:33:26;;;;;;;110.55;32.25;;;;;;;;;;4980559;28;20399;-70
2021/11/16 06:35:52;;;;;;;101.30;31.75;;;;;;;;;;4980533;28;20122;-70
2021/11/16 06:38:19;;;;;;;115.47;33.05;;;;;;;;;;4983856;28;20533;-70
2021/11/16 06:40:49;;;;;;;88.35;30.25;;;;;;;;;;4983315;28;20118;-70
2021/11/16 06:43:20;;;;;;;121.72;33.70;;;;;;;;;;4975746;28;20463;-70
2021/11/16 06:45:51;;;;;;;97.53;30.98;;;;;;;;;;4978657;28;20077;-70
2021/11/16 06:48:18;;;;;;;95.22;30.52;;;;;;;;;;4978744;28;20590;-70
2021/11/16 06:50:44;;;;;;;94.15;30.27;;;;;;;;;;4982779;28;20074;-70
2021/11/16 06:53:11;;;;;;;91.22;30.33;;;;;;;;;;4986419;28;20137;-70
2021/11/16 06:55:38;;;;;;;80.28;28.65;;;;;;;;;;4980700;28;20142;-70
2021/11/16 06:58:04;;;;;;;81.07;25.30;;;;;;;;;;4969613;28;20105;-70
2021/11/16 07:00:34;;;;;;;85.75;28.67;;;;;;;;;;4982899;28;20090;-70
2021/11/16 07:03:03;;;;;;;102.97;31.95;;;;;;;;;;4988868;28;20043;-70
2021/11/16 07:05:30;;;;;;;105.50;31.23;;;;;;;;;;4981069;28;20050;-70
2021/11/16 07:07:57;;;;;;;79.82;27.52;;;;;;;;;;4977557;28;20133;-70
2021/11/16 07:10:31;;;;;;;89.13;29.63;;;;;;;;;;4981239;28;20051;-70
2021/11/16 07:13:03;;;;;;;104.60;30.48;;;;;;;;;;4982460;28;20083;-70
2021/11/16 07:15:33;;;;;;;99.63;31.67;;;;;;;;;;4988303;28;20059;-70
2021/11/16 07:18:01;;;;;;;116.78;33.60;;;;;;;;;;4985418;28;20046;-70
2021/11/16 07:20:28;;;;;;;94.45;30.40;;;;;;;;;;4984631;28;20078;-70
2021/11/16 07:22:56;;;;;;;88.60;30.73;;;;;;;;;;4984265;28;20562;-70
2021/11/16 07:25:23;;;;;;;96.30;31.67;;;;;;;;;;4986946;28;20074;-70
2021/11/16 07:27:55;;;;;;;118.88;32.25;;;;;;;;;;4982486;28;20082;-70
2021/11/16 07:30:24;;;;;;;89.20;28.98;;;;;;;;;;4982182;28;20051;-69
2021/11/16 07:32:51;;;;;;;70.43;27.13;;;;;;;;;;4974537;28;20133;-70
2021/11/16 07:35:23;;;;;;;89.25;28.70;;;;;;;;;;4979384;28;20085;-70
2021/11/16 07:37:53;;;;;;;76.05;27.75;;;;;;;;;;4981702;28;20084;-70
2021/11/16 07:40:21;;;;;;;71.60;26.30;;;;;;;;;;4979228;28;20133;-70
2021/11/16 07:42:49;;;;;;;75.90;28.50;;;;;;;;;;4979941;28;20530;-70
2021/11/16 07:45:17;;;;;;;81.65;27.15;;;;;;;;;;4983705;28;20050;-70
2021/11/16 07:47:48;;;;;;;75.07;27.20;;;;;;;;;;4983159;28;20078;-70
2021/11/16 07:50:29;;;;;;;74.50;27.08;;;;;;;;;;4981435;28;20125;-69
2021/11/16 07:53:11;;;;;;;73.18;27.00;;;;;;;;;;4977340;28;20066;-69
2021/11/16 07:55:39;;;;;;;76.72;26.98;;;;;;;;;;4985911;28;20142;-69
2021/11/16 07:58:07;;;;;;;81.60;27.45;;;;;;;;;;4979819;28;20086;-70
2021/11/16 08:00:34;;;;;;;80.32;27.67;;;;;;;;;;4984103;28;20491;-69
2021/11/16 08:03:07;;;;;;;74.90;26.70;;;;;;;;;;4978746;28;20122;-69
2021/11/16 08:05:45;;;;;;;65.28;25.48;;;;;;;;;;4981627;28;20101;-70
2021/11/16 08:10:52;;;;;;;62.22;24.52;;;;;;;;;;4983212;28;20562;-69
2021/11/16 08:13:30;;;;;;;64.40;24.73;;;;;;;;;;4980862;28;20086;-69
2021/11/16 08:16:05;;;;;;;67.65;25.13;;;;;;;;;;4985240;28;20056;-69
2021/11/16 08:18:40;;;;;;;56.60;23.85;;;;;;;;;;4985621;28;20093;-69
2021/11/16 08:21:08;;;;;;;69.22;26.30;;;;;;;;;;4984047;28;20360;-69
2021/11/16 08:23:34;;;;;;;56.45;23.98;;;;;;;;;;4976120;28;20082;-70
2021/11/16 08:26:01;;;;;;;67.17;24.70;;;;;;;;;;4969442;28;20490;-69
2021/11/16 08:28:28;;;;;;;63.83;24.95;;;;;;;;;;4980430;28;20093;-69
2021/11/16 08:30:54;;;;;;;77.68;25.17;;;;;;;;;;4987652;28;20501;-69
2021/11/16 08:33:21;;;;;;;64.80;25.08;;;;;;;;;;4985021;28;20048;-69
2021/11/16 08:35:49;;;;;;;68.13;25.20;;;;;;;;;;4989801;28;20058;-70
2021/11/16 08:38:17;;;;;;;75.93;24.65;;;;;;;;;;4982935;28;20080;-69
2021/11/16 08:40:45;;;;;;;58.70;24.23;;;;;;;;;;4986029;28;20129;-69
2021/11/16 08:43:15;;;;;;;57.10;23.40;;;;;;;;;;4981551;28;20078;-69
2021/11/16 08:45:45;;;;;;;48.95;21.58;;;;;;;;;;4977954;28;20752;-69
2021/11/16 08:48:15;;;;;;;65.97;24.58;;;;;;;;;;4977471;28;20058;-69
2021/11/16 08:50:43;;;;;;;62.40;23.33;;;;;;;;;;4985077;28;20179;-70
2021/11/16 08:53:15;;;;;;;51.28;21.52;;;;;;;;;;4983887;28;20078;-69
2021/11/16 08:55:42;;;;;;;52.15;22.10;;;;;;;;;;4988929;28;20481;-69
2021/11/16 08:58:10;;;;;;;48.00;20.77;;;;;;;;;;4985698;28;20046;-69
2021/11/16 09:00:36;;;;;;;;;;;;;;;;;;4989519;28;20082;-69
2021/11/16 09:03:05;;;;;;;50.42;19.05;;;;;;;;;;4984016;28;19921;-69
2021/11/16 09:05:33;;;;;;;51.03;20.55;;;;;;;;;;4983321;28;20109;-70
2021/11/16 09:08:02;;;;;;;52.55;20.83;;;;;;;;;;4984164;28;20086;-69
2021/11/16 09:10:33;;;;;;;49.17;19.63;;;;;;;;;;4979464;28;20109;-69
2021/11/16 09:13:00;;;;;;;43.08;19.83;;;;;;;;;;4979916;28;20137;-69
2021/11/16 09:15:29;;;;;;;46.22;19.70;;;;;;;;;;4982044;28;20469;-69
2021/11/16 09:18:06;;;;;;;47.10;19.23;;;;;;;;;;4980809;28;20074;-69
2021/11/16 09:20:33;;;;;;;47.35;19.30;;;;;;;;;;4982388;28;20205;-69
2021/11/16 09:22:59;;;;;;;46.37;19.17;;;;;;;;;;4981670;28;20085;-69
2021/11/16 09:25:31;;;;;;;44.13;18.88;;;;;;;;;;4982090;28;20344;-69
2021/11/16 09:28:25;;;;;;;40.15;18.02;;;;;;;;;;4989841;28;20078;-69
2021/11/16 09:30:46;;;;;;;43.65;17.48;;;;;;;;;;4984141;28;20146;-69
2021/11/16 09:33:17;;;;;;;40.13;16.67;;;;;;;;;;4971776;28;20054;-69
2021/11/16 09:35:44;;;;;;;44.50;16.77;;;;;;;;;;4990849;28;20443;-69
2021/11/16 09:38:11;;;;;;;45.03;16.77;;;;;;;;;;4985100;28;20058;-69
2021/11/16 09:40:38;;;;;;;28.83;14.07;;;;;;;;;;4983154;28;20055;-69
2021/11/16 09:43:04;;;;;;;40.80;16.27;;;;;;;;;;4976434;28;20326;-70
2021/11/16 09:45:34;;;;;;;31.40;14.48;;;;;;;;;;4979287;28;20090;-70
2021/11/16 09:48:02;;;;;;;31.95;14.85;;;;;;;;;;4985703;28;20073;-70
2021/11/16 09:50:28;;;;;;;;;;;;;;;;;;4986677;28;20133;-69
2021/11/16 09:52:56;;;;;;;27.00;13.02;;;;;;;;;;4983366;28;19981;-69
2021/11/16 09:55:24;;;;;;;27.92;13.38;;;;;;;;;;4985438;28;20140;-70
2021/11/16 09:57:58;;;;;;;33.85;15.10;;;;;;;;;;4984739;28;20133;-70
2021/11/16 10:00:25;;;;;;;31.58;14.63;;;;;;;;;;4981070;28;20062;-69
2021/11/16 10:03:04;;;;;;;29.50;13.35;;;;;;;;;;4980332;28;20085;-69
2021/11/16 10:05:35;;;;;;;25.63;13.25;;;;;;;;;;4982047;28;20046;-69
2021/11/16 10:08:03;;;;;;;26.10;13.13;;;;;;;;;;4978683;28;20081;-70
2021/11/16 10:10:31;;;;;;;26.55;12.65;;;;;;;;;;4980531;28;20482;-69
2021/11/16 10:12:59;;;;;;;29.55;13.32;;;;;;;;;;4988713;28;20120;-69
2021/11/16 10:15:29;;;;;;;33.33;15.40;;;;;;;;;;4986442;28;20509;-70
2021/11/16 10:17:55;;;;;;;34.33;15.18;;;;;;;;;;4983474;28;20095;-70
2021/11/16 10:20:27;;;;;;;29.58;14.60;;;;;;;;;;4983786;28;20092;-70
2021/11/16 10:23:14;;;;;;;28.33;13.40;;;;;;;;;;4986604;28;20871;-70
2021/11/16 10:25:49;;;;;;;36.50;15.15;;;;;;;;;;4980195;28;20093;-70
2021/11/16 10:28:17;;;;;;;29.27;14.30;;;;;;;;;;4975950;28;20050;-70
2021/11/16 10:30:45;;;;;;;38.03;15.93;;;;;;;;;;4973450;28;20152;-70
2021/11/16 10:33:12;;;;;;;;;;;;;;;;;;4982399;28;20406;-70
2021/11/16 10:35:39;;;;;;;34.47;15.90;;;;;;;;;;4980175;28;19988;-70
2021/11/16 10:38:08;;;;;;;43.80;17.95;;;;;;;;;;4980207;28;20169;-70
2021/11/16 10:40:36;;;;;;;40.15;17.98;;;;;;;;;;4981802;28;20054;-70
2021/11/16 10:43:03;;;;;;;47.55;19.40;;;;;;;;;;4984479;28;20049;-70
2021/11/16 10:45:30;;;;;;;;;;;;;;;;;;4983413;28;20054;-70
2021/11/16 10:48:00;;;;;;;44.25;19.92;;;;;;;;;;4983208;28;19929;-70
2021/11/16 10:50:29;;;;;;;46.40;19.63;;;;;;;;;;4986133;28;20058;-70
2021/11/16 10:53:06;;;;;;;45.90;20.83;;;;;;;;;;4982872;28;20542;-70
2021/11/16 10:55:33;;;;;;;46.80;21.38;;;;;;;;;;4984631;28;20085;-70
2021/11/16 10:58:06;;;;;;;;;;;;;;;;;;4981048;28;20096;-70
2021/11/16 11:00:35;;;;;;;51.90;20.73;;;;;;;;;;4983854;28;19922;-69
2021/11/16 11:03:31;;;;;;;41.55;19.90;;;;;;;;;;4981388;28;20417;-70
2021/11/16 11:06:07;;;;;;;42.00;18.38;;;;;;;;;;4971644;28;20113;-69
2021/11/16 11:08:44;;;;;;;49.53;20.58;;;;;;;;;;4985905;28;20125;-70
2021/11/16 11:11:15;;;;;;;45.88;19.85;;;;;;;;;;4984543;28;20097;-69
2021/11/16 11:14:17;;;;;;;50.75;22.38;;;;;;;;;;4985488;28;20042;-70
2021/11/16 11:16:55;;;;;;;53.95;22.60;;;;;;;;;;4983494;28;20129;-70
2021/11/16 11:19:25;;;;;;;;;;;;;;;;;;4981227;28;20130;-70
2021/11/16 11:21:58;;;;;;;55.90;23.00;;;;;;;;;;4978487;28;19977;-70
2021/11/16 11:24:28;;;;;;;50.05;21.23;;;;;;;;;;4979644;28;20084;-70
2021/11/16 11:26:57;;;;;;;48.55;20.75;;;;;;;;;;4975339;28;20274;-70
2021/11/16 11:31:58;;;;;;;48.40;20.98;;;;;;;;;;5006751;28;20156;-70
2021/11/16 11:34:42;;;;;;;43.00;19.88;;;;;;;;;;5001813;28;20050;-70
2021/11/16 11:37:12;;;;;;;46.75;19.63;;;;;;;;;;5004668;28;20085;-70
2021/11/16 11:39:38;;;;;;;50.00;21.15;;;;;;;;;;5005047;28;20140;-70
2021/11/16 11:42:06;;;;;;;46.63;21.85;;;;;;;;;;5001827;28;20054;-70
2021/11/16 11:44:41;;;;;;;51.30;21.75;;;;;;;;;;5001460;28;20128;-70
2021/11/16 11:47:07;;;;;;;55.80;22.70;;;;;;;;;;4997027;28;20370;-70
2021/11/16 11:49:34;;;;;;;47.60;21.67;;;;;;;;;;4999912;28;20045;-70
2021/11/16 11:52:02;;;;;;;59.30;23.23;;;;;;;;;;4999020;28;20136;-70
2021/11/16 11:54:29;;;;;;;51.60;20.55;;;;;;;;;;5005002;28;20133;-70
2021/11/16 11:56:56;;;;;;;54.92;21.85;;;;;;;;;;4998790;28;20038;-70
2021/11/16 11:59:23;;;;;;;54.42;20.88;;;;;;;;;;5003456;28;20133;-70
2021/11/16 12:01:50;;;;;;;;;;;;;;;;;;5003754;28;20273;-70
2021/11/16 12:04:18;;;;;;;61.88;22.63;;;;;;;;;;5004350;28;19926;-70
2021/11/16 12:06:46;;;;;;;55.92;21.88;;;;;;;;;;4999383;28;20053;-70
2021/11/16 12:09:14;;;;;;;53.47;22.55;;;;;;;;;;4999063;28;20149;-70
2021/11/16 12:11:41;;;;;;;54.75;23.60;;;;;;;;;;5004976;28;20084;-70
2021/11/16 12:14:30;;;;;;;48.00;20.97;;;;;;;;;;5001403;28;20054;-70
2021/11/16 12:17:01;;;;;;;68.60;24.40;;;;;;;;;;4998087;28;20132;-70
2021/11/16 12:19:37;;;;;;;55.55;23.08;;;;;;;;;;4998774;28;20077;-70
2021/11/16 12:22:11;;;;;;;51.97;20.90;;;;;;;;;;5000150;28;20137;-70
2021/11/16 12:24:37;;;;;;;54.85;23.33;;;;;;;;;;5005624;28;20148;-70
2021/11/16 12:27:05;;;;;;;58.95;23.75;;;;;;;;;;5008286;28;20070;-70
2021/11/16 12:29:41;;;;;;;56.38;23.48;;;;;;;;;;4994355;28;20089;-70
2021/11/16 12:32:21;;;;;;;59.30;23.48;;;;;;;;;;4983942;28;20141;-70
2021/11/16 12:34:56;;;;;;;56.60;24.20;;;;;;;;;;4987544;28;20139;-70
2021/11/16 12:37:28;;;;;;;68.50;24.13;;;;;;;;;;4982231;28;20097;-70
2021/11/16 12:39:56;;;;;;;60.55;23.13;;;;;;;;;;4985049;28;20355;-70
2021/11/16 12:42:23;;;;;;;63.38;25.40;;;;;;;;;;4989550;28;20598;-70
2021/11/16 12:44:56;;;;;;;67.70;26.15;;;;;;;;;;4986942;28;20097;-70
2021/11/16 12:47:24;;;;;;;66.93;25.05;;;;;;;;;;4983471;28;20602;-70
2021/11/16 12:49:53;;;;;;;76.90;25.88;;;;;;;;;;4985577;28;20051;-70
2021/11/16 12:52:21;;;;;;;66.47;25.50;;;;;;;;;;4982340;28;20097;-70
2021/11/16 12:54:49;;;;;;;67.70;25.20;;;;;;;;;;4987472;28;20125;-70
2021/11/16 12:57:23;;;;;;;75.72;26.77;;;;;;;;;;4982407;28;20063;-70
2021/11/16 12:59:51;;;;;;;70.38;26.63;;;;;;;;;;4984579;28;20077;-70
2021/11/16 13:02:32;;;;;;;80.25;28.80;;;;;;;;;;4980153;28;20615;-70
2021/11/16 13:05:01;;;;;;;72.68;27.20;;;;;;;;;;4980996;28;20081;-71
2021/11/16 13:07:27;;;;;;;70.68;26.30;;;;;;;;;;4977551;28;20442;-70
2021/11/16 13:10:13;;;;;;;84.40;28.38;;;;;;;;;;4990037;28;20097;-70
2021/11/16 13:12:48;;;;;;;75.03;26.42;;;;;;;;;;4983558;28;20097;-70
2021/11/16 13:15:24;;;;;;;84.70;27.35;;;;;;;;;;4983083;28;20121;-71
2021/11/16 13:17:56;;;;;;;70.03;25.83;;;;;;;;;;4986897;28;20054;-71
2021/11/16 13:20:28;;;;;;;85.97;27.25;;;;;;;;;;4982027;28;20054;-70
2021/11/16 13:22:58;;;;;;;75.60;26.23;;;;;;;;;;4985263;28;20090;-70
2021/11/16 13:25:37;;;;;;;65.82;24.42;;;;;;;;;;4981433;28;20188;-70
2021/11/16 13:28:04;;;;;;;68.95;26.02;;;;;;;;;;4977261;28;20047;-70
2021/11/16 13:30:31;;;;;;;68.07;25.10;;;;;;;;;;4990831;28;20161;-70
2021/11/16 13:32:58;;;;;;;80.87;28.27;;;;;;;;;;4976772;28;20045;-70
2021/11/16 13:35:24;;;;;;;71.72;26.08;;;;;;;;;;4983983;28;20133;-70
2021/11/16 13:37:52;;;;;;;68.63;24.92;;;;;;;;;;4979235;28;20526;-71
2021/11/16 13:40:22;;;;;;;76.75;26.42;;;;;;;;;;4984332;28;20207;-70
2021/11/16 13:42:51;;;;;;;79.00;26.52;;;;;;;;;;4981645;28;20090;-70
2021/11/16 13:45:18;;;;;;;63.17;23.73;;;;;;;;;;4986537;28;20078;-70
2021/11/16 13:47:47;;;;;;;75.18;26.48;;;;;;;;;;4986922;28;20073;-70
2021/11/16 13:50:14;;;;;;;74.07;32.15;;;;;;;;;;4988287;28;20088;-70
2021/11/16 13:52:42;;;;;;;69.00;26.27;;;;;;;;;;4988277;28;20082;-70
2021/11/16 13:55:11;;;;;;;63.10;24.52;;;;;;;;;;4984142;28;20086;-70
2021/11/16 13:57:40;;;;;;;72.15;27.15;;;;;;;;;;4978738;28;20082;-70
2021/11/16 14:00:09;;;;;;;70.70;24.35;;;;;;;;;;4979074;28;20158;-70
2021/11/16 14:02:44;;;;;;;65.10;24.48;;;;;;;;;;4984621;28;20093;-70
2021/11/16 14:05:11;;;;;;;72.10;24.17;;;;;;;;;;4965867;28;20134;-70
2021/11/16 14:07:48;;;;;;;77.72;25.63;;;;;;;;;;4985848;28;20089;-70
2021/11/16 14:10:16;;;;;;;70.90;24.00;;;;;;;;;;4983502;28;20069;-70
2021/11/16 14:12:44;;;;;;;68.53;24.63;;;;;;;;;;4983195;28;20093;-70
2021/11/16 14:15:15;;;;;;;67.18;26.02;;;;;;;;;;4981833;28;20157;-70
2021/11/16 14:17:44;;;;;;;76.25;27.45;;;;;;;;;;4986338;28;20506;-71
2021/11/16 14:20:11;;;;;;;82.03;25.77;;;;;;;;;;4975498;28;20484;-70
2021/11/16 14:22:38;;;;;;;71.28;24.63;;;;;;;;;;4973611;28;20403;-70
2021/11/16 14:25:15;;;;;;;78.05;26.13;;;;;;;;;;4980251;28;20137;-70
2021/11/16 14:27:42;;;;;;;70.25;22.42;;;;;;;;;;4982270;28;20503;-70
2021/11/16 14:30:10;;;;;;;71.45;24.00;;;;;;;;;;4982861;28;20082;-70
2021/11/16 14:32:37;;;;;;;71.75;26.45;;;;;;;;;;4985334;28;20077;-70
2021/11/16 14:35:14;;;;;;;60.33;23.63;;;;;;;;;;4986928;28;20133;-70
2021/11/16 14:37:47;;;;;;;64.77;24.50;;;;;;;;;;4986647;28;20120;-70
2021/11/16 14:40:19;;;;;;;74.75;25.83;;;;;;;;;;4980793;28;20243;-70
2021/11/16 14:42:46;;;;;;;59.80;23.60;;;;;;;;;;4983068;28;20137;-70
2021/11/16 14:45:13;;;;;;;70.32;26.10;;;;;;;;;;4987455;28;20133;-70
2021/11/16 14:47:42;;;;;;;63.70;24.25;;;;;;;;;;4988727;28;20332;-70
2021/11/16 14:50:12;;;;;;;77.72;30.45;;;;;;;;;;4976992;28;20126;-70